createdAt,value
2022-10-23T00:04:59.549Z,0
2022-10-23T00:08:19.008Z,0
2022-10-23T00:09:25.742Z,0
2022-10-23T00:10:32.486Z,0
2022-10-23T00:12:45.926Z,0
2022-10-23T00:13:52.657Z,0
2022-10-23T00:14:58.727Z,0
2022-10-23T00:17:15.230Z,0
2022-10-23T00:18:21.954Z,0
2022-10-23T00:19:28.670Z,0
2022-10-23T00:20:35.398Z,0
2022-10-23T00:23:55.597Z,0
2022-10-23T00:27:15.776Z,0
2022-10-23T00:31:42.700Z,0
2022-10-23T00:32:49.424Z,0
2022-10-23T00:33:55.443Z,0
2022-10-23T00:36:08.884Z,0
2022-10-23T00:37:15.638Z,0
2022-10-23T00:38:22.346Z,0
2022-10-23T00:39:29.155Z,0
2022-10-23T00:40:35.799Z,0
2022-10-23T00:41:42.563Z,0
2022-10-23T00:42:49.283Z,0
2022-10-23T00:43:55.989Z,0
2022-10-23T00:46:09.452Z,0
2022-10-23T00:48:22.912Z,0
2022-10-23T00:49:29.641Z,0
2022-10-23T00:51:42.370Z,0
2022-10-23T00:52:49.098Z,0
2022-10-23T00:53:55.826Z,0
2022-10-23T00:55:02.549Z,0
2022-10-23T00:56:09.295Z,0
2022-10-23T00:57:16.018Z,0
2022-10-23T00:58:22.849Z,0
2022-10-23T00:59:29.469Z,0
2022-10-23T01:02:49.663Z,0
2022-10-23T01:03:56.386Z,0
2022-10-23T01:05:03.125Z,0
2022-10-23T01:06:09.144Z,0
2022-10-23T01:07:15.948Z,0
2022-10-23T01:08:22.577Z,0
2022-10-23T01:09:29.306Z,0
2022-10-23T01:10:36.042Z,0
2022-10-23T01:11:42.767Z,0
2022-10-23T01:12:49.498Z,0
2022-10-23T01:13:56.229Z,0
2022-10-23T01:15:02.973Z,0
2022-10-23T01:16:09.684Z,0
2022-10-23T01:17:16.412Z,0
2022-10-23T01:18:23.144Z,0
2022-10-23T01:20:36.613Z,0
2022-10-23T01:21:42.609Z,0
2022-10-23T01:22:49.337Z,0
2022-10-23T01:23:56.062Z,0
2022-10-23T01:26:09.518Z,0
2022-10-23T01:27:16.247Z,0
2022-10-23T01:28:22.987Z,0
2022-10-23T01:29:29.729Z,0
2022-10-23T01:30:36.451Z,0
2022-10-23T01:31:43.174Z,0
2022-10-23T01:32:49.901Z,0
2022-10-23T01:33:56.643Z,0
2022-10-23T01:35:03.361Z,0
2022-10-23T01:36:09.355Z,0
2022-10-23T01:37:16.099Z,0
2022-10-23T01:38:22.820Z,0
2022-10-23T01:39:29.550Z,0
2022-10-23T01:41:43.059Z,0
2022-10-23T01:43:56.564Z,0
2022-10-23T01:45:03.194Z,0
2022-10-23T01:46:09.937Z,0
2022-10-23T01:47:16.648Z,0
2022-10-23T01:48:23.454Z,0
2022-10-23T01:50:36.839Z,0
2022-10-23T01:51:42.843Z,0
2022-10-23T01:52:49.571Z,0
2022-10-23T01:53:56.309Z,0
2022-10-23T01:55:03.134Z,0
2022-10-23T01:56:09.758Z,0
2022-10-23T01:57:16.482Z,0
2022-10-23T01:58:23.221Z,0
2022-10-23T01:59:29.949Z,0
2022-10-23T02:00:36.675Z,0
2022-10-23T02:01:43.403Z,0
2022-10-23T02:02:50.141Z,0
2022-10-23T02:03:56.874Z,0
2022-10-23T02:05:03.603Z,0
2022-10-23T02:06:09.623Z,0
2022-10-23T02:07:15.648Z,0
2022-10-23T02:08:21.638Z,0
2022-10-23T02:09:28.363Z,0
2022-10-23T02:10:35.095Z,0
2022-10-23T02:11:41.819Z,0
2022-10-23T02:12:48.548Z,0
2022-10-23T02:16:08.754Z,0
2022-10-23T02:20:35.694Z,0
2022-10-23T02:21:42.390Z,0
2022-10-23T02:22:48.391Z,0
2022-10-23T02:23:55.118Z,0
2022-10-23T02:25:01.171Z,0
2022-10-23T02:26:07.888Z,0
2022-10-23T02:27:13.882Z,0
2022-10-23T02:29:27.342Z,0
2022-10-23T02:30:34.072Z,0
2022-10-23T02:32:47.535Z,0
2022-10-23T02:35:00.992Z,0
2022-10-23T02:37:14.455Z,0
2022-10-23T02:39:27.921Z,0
2022-10-23T02:40:34.636Z,0
2022-10-23T02:41:41.369Z,0
2022-10-23T02:43:54.828Z,0
2022-10-23T02:45:00.827Z,0
2022-10-23T02:46:07.566Z,0
2022-10-23T02:47:14.286Z,0
2022-10-23T02:48:21.015Z,0
2022-10-23T02:55:01.402Z,0
2022-10-23T02:56:08.129Z,0
2022-10-23T02:57:14.848Z,0
2022-10-23T02:59:28.311Z,0
2022-10-23T03:00:35.033Z,0
2022-10-23T03:02:48.516Z,0
2022-10-23T03:03:55.239Z,0
2022-10-23T03:05:01.977Z,0
2022-10-23T03:06:08.705Z,0
2022-10-23T03:08:22.148Z,0
2022-10-23T03:10:34.885Z,0
2022-10-23T03:11:41.609Z,0
2022-10-23T03:13:55.061Z,0
2022-10-23T03:15:01.790Z,0
2022-10-23T03:17:15.261Z,0
2022-10-23T03:18:21.978Z,0
2022-10-23T03:19:28.719Z,0
2022-10-23T03:21:42.173Z,0
2022-10-23T03:22:48.903Z,0
2022-10-23T03:26:08.353Z,0
2022-10-23T03:27:15.091Z,0
2022-10-23T03:28:21.820Z,0
2022-10-23T03:29:28.541Z,0
2022-10-23T03:30:35.283Z,0
2022-10-23T03:31:41.998Z,0
2022-10-23T03:32:48.738Z,0
2022-10-23T03:33:55.463Z,0
2022-10-23T03:36:08.927Z,0
2022-10-23T03:37:15.655Z,0
2022-10-23T03:39:28.375Z,0
2022-10-23T03:40:35.108Z,0
2022-10-23T03:42:48.640Z,0
2022-10-23T03:43:55.294Z,0
2022-10-23T03:47:15.490Z,0
2022-10-23T03:48:22.225Z,0
2022-10-23T03:49:28.951Z,0
2022-10-23T03:51:42.410Z,0
2022-10-23T03:52:49.139Z,0
2022-10-23T03:55:01.866Z,0
2022-10-23T03:56:08.591Z,0
2022-10-23T03:58:22.048Z,0
2022-10-23T04:00:37.875Z,0
2022-10-23T04:01:44.608Z,0
2022-10-23T04:02:51.356Z,0
2022-10-23T04:06:11.526Z,0
2022-10-23T04:07:17.615Z,0
2022-10-23T04:08:27.360Z,0
2022-10-23T04:09:34.092Z,0
2022-10-23T04:10:40.810Z,0
2022-10-23T04:12:54.276Z,0
2022-10-23T04:14:01.002Z,0
2022-10-23T04:17:21.187Z,0
2022-10-23T04:18:27.923Z,0
2022-10-23T04:20:41.379Z,0
2022-10-23T04:22:54.107Z,0
2022-10-23T04:24:00.829Z,0
2022-10-23T04:25:07.559Z,0
2022-10-23T04:27:21.025Z,0
2022-10-23T04:28:27.766Z,0
2022-10-23T04:31:47.944Z,0
2022-10-23T04:32:54.684Z,0
2022-10-23T04:35:08.150Z,0
2022-10-23T04:36:14.925Z,0
2022-10-23T04:37:20.859Z,0
2022-10-23T04:39:34.315Z,0
2022-10-23T04:40:41.046Z,0
2022-10-23T04:41:47.872Z,0
2022-10-23T04:42:54.547Z,0
2022-10-23T04:46:14.712Z,0
2022-10-23T04:47:21.423Z,0
2022-10-23T04:48:28.150Z,0
2022-10-23T04:49:34.886Z,0
2022-10-23T04:50:41.613Z,0
2022-10-23T04:52:54.341Z,0
2022-10-23T04:54:01.074Z,0
2022-10-23T04:55:07.804Z,0
2022-10-23T04:57:21.270Z,0
2022-10-23T04:58:27.986Z,0
2022-10-23T05:00:41.451Z,0
2022-10-23T05:01:48.180Z,0
2022-10-23T05:02:54.911Z,0
2022-10-23T05:05:08.360Z,0
2022-10-23T05:06:14.418Z,0
2022-10-23T05:07:21.105Z,0
2022-10-23T05:08:27.821Z,0
2022-10-23T05:09:34.618Z,0
2022-10-23T05:10:41.288Z,0
2022-10-23T05:11:48.014Z,0
2022-10-23T05:12:54.742Z,0
2022-10-23T05:15:08.199Z,0
2022-10-23T05:16:14.925Z,0
2022-10-23T05:17:21.663Z,0
2022-10-23T05:18:28.387Z,0
2022-10-23T05:19:35.123Z,0
2022-10-23T05:20:41.122Z,0
2022-10-23T05:21:47.884Z,0
2022-10-23T05:22:54.576Z,0
2022-10-23T05:25:08.040Z,0
2022-10-23T05:27:21.545Z,0
2022-10-23T05:28:28.223Z,0
2022-10-23T05:29:34.957Z,0
2022-10-23T05:30:41.681Z,0
2022-10-23T05:31:48.412Z,0
2022-10-23T05:32:55.149Z,0
2022-10-23T05:34:01.900Z,0
2022-10-23T05:35:08.641Z,0
2022-10-23T05:36:14.636Z,0
2022-10-23T05:37:21.336Z,0
2022-10-23T05:38:28.055Z,0
2022-10-23T05:39:34.789Z,0
2022-10-23T05:40:41.598Z,0
2022-10-23T05:41:48.252Z,0
2022-10-23T05:42:55.021Z,0
2022-10-23T05:44:01.706Z,0
2022-10-23T05:46:15.167Z,0
2022-10-23T05:47:21.891Z,0
2022-10-23T05:48:28.619Z,0
2022-10-23T05:49:35.356Z,0
2022-10-23T05:50:42.110Z,0
2022-10-23T05:51:48.144Z,0
2022-10-23T05:54:01.575Z,0
2022-10-23T05:55:07.573Z,3
2022-10-23T05:57:21.049Z,4
2022-10-23T05:59:34.496Z,0
2022-10-23T06:00:41.220Z,4
2022-10-23T06:01:47.959Z,4
2022-10-23T06:02:54.703Z,4
2022-10-23T06:05:08.152Z,4
2022-10-23T06:06:14.900Z,4
2022-10-23T06:07:21.607Z,9
2022-10-23T06:08:27.645Z,9
2022-10-23T06:09:33.640Z,9
2022-10-23T06:11:47.122Z,15
2022-10-23T06:15:07.284Z,15
2022-10-23T06:16:14.027Z,20
2022-10-23T06:17:20.782Z,20
2022-10-23T06:18:27.483Z,26
2022-10-23T06:19:34.199Z,35
2022-10-23T06:20:40.930Z,31
2022-10-23T06:25:07.857Z,47
2022-10-23T06:26:14.585Z,50
2022-10-23T06:27:20.591Z,55
2022-10-23T06:29:34.038Z,63
2022-10-23T06:30:40.769Z,63
2022-10-23T06:31:47.542Z,63
2022-10-23T06:32:54.228Z,68
2022-10-23T06:34:00.955Z,68
2022-10-23T06:35:07.689Z,74
2022-10-23T06:37:21.144Z,77
2022-10-23T06:38:27.871Z,82
2022-10-23T06:39:34.644Z,100
2022-10-23T06:41:48.069Z,100
2022-10-23T06:42:54.798Z,112
2022-10-23T06:44:00.861Z,110
2022-10-23T06:45:07.517Z,101
2022-10-23T06:46:14.257Z,127
2022-10-23T06:48:27.808Z,132
2022-10-23T06:49:34.444Z,138
2022-10-23T06:50:41.169Z,144
2022-10-23T06:52:54.632Z,163
2022-10-23T06:54:01.356Z,158
2022-10-23T06:56:14.821Z,180
2022-10-23T06:59:35.012Z,182
2022-10-23T07:00:41.735Z,183
2022-10-23T07:01:47.762Z,183
2022-10-23T07:02:54.470Z,183
2022-10-23T07:04:01.242Z,178
2022-10-23T07:05:07.944Z,183
2022-10-23T07:07:21.426Z,197
2022-10-23T07:08:28.132Z,182
2022-10-23T07:09:34.849Z,197
2022-10-23T07:10:41.568Z,206
2022-10-23T07:11:48.298Z,208
2022-10-23T07:12:55.034Z,213
2022-10-23T07:14:01.782Z,227
2022-10-23T07:15:08.485Z,224
2022-10-23T07:16:14.487Z,233
2022-10-23T07:17:21.227Z,242
2022-10-23T07:18:27.951Z,254
2022-10-23T07:19:34.711Z,262
2022-10-23T07:21:48.203Z,278
2022-10-23T07:22:54.866Z,284
2022-10-23T07:24:01.594Z,296
2022-10-23T07:26:15.055Z,311
2022-10-23T07:27:21.792Z,316
2022-10-23T07:29:35.243Z,300
2022-10-23T07:30:41.242Z,317
2022-10-23T07:32:54.703Z,340
2022-10-23T07:34:01.481Z,362
2022-10-23T07:35:08.162Z,372
2022-10-23T07:36:14.909Z,390
2022-10-23T07:37:21.694Z,381
2022-10-23T07:40:41.803Z,449
2022-10-23T07:42:55.268Z,478
2022-10-23T07:44:01.998Z,480
2022-10-23T07:45:08.738Z,498
2022-10-23T07:46:15.549Z,495
2022-10-23T07:48:28.182Z,477
2022-10-23T07:49:34.976Z,484
2022-10-23T07:50:41.655Z,463
2022-10-23T07:51:47.695Z,449
2022-10-23T07:52:57.486Z,447
2022-10-23T07:54:04.278Z,448
2022-10-23T07:57:24.394Z,428
2022-10-23T07:59:37.889Z,382
2022-10-23T08:01:51.312Z,370
2022-10-23T08:02:58.043Z,370
2022-10-23T08:06:18.255Z,366
2022-10-23T08:07:24.236Z,366
2022-10-23T08:08:30.991Z,370
2022-10-23T08:10:44.415Z,365
2022-10-23T08:11:51.181Z,362
2022-10-23T08:14:04.609Z,374
2022-10-23T08:15:11.338Z,390
2022-10-23T08:16:18.060Z,401
2022-10-23T08:17:24.791Z,421
2022-10-23T08:18:31.527Z,423
2022-10-23T08:19:38.258Z,432
2022-10-23T08:21:51.782Z,453
2022-10-23T08:22:57.709Z,463
2022-10-23T08:25:11.174Z,463
2022-10-23T08:26:17.995Z,467
2022-10-23T08:27:24.633Z,474
2022-10-23T08:28:31.361Z,474
2022-10-23T08:29:38.088Z,474
2022-10-23T08:30:44.823Z,470
2022-10-23T08:32:58.277Z,484
2022-10-23T08:36:18.466Z,454
2022-10-23T08:37:24.471Z,453
2022-10-23T08:38:31.214Z,438
2022-10-23T08:39:37.945Z,420
2022-10-23T08:40:44.654Z,409
2022-10-23T08:41:51.381Z,392
2022-10-23T08:45:11.578Z,374
2022-10-23T08:46:18.294Z,374
2022-10-23T08:47:25.031Z,371
2022-10-23T08:48:31.767Z,371
2022-10-23T08:50:45.222Z,380
2022-10-23T08:52:57.948Z,395
2022-10-23T08:54:04.683Z,394
2022-10-23T08:55:11.411Z,421
2022-10-23T08:57:24.872Z,456
2022-10-23T08:58:31.649Z,463
2022-10-23T08:59:38.329Z,478
2022-10-23T09:00:45.055Z,505
2022-10-23T09:01:51.781Z,528
2022-10-23T09:05:11.977Z,614
2022-10-23T09:06:17.978Z,627
2022-10-23T09:09:38.156Z,673
2022-10-23T09:10:44.891Z,690
2022-10-23T09:12:58.355Z,699
2022-10-23T09:14:05.078Z,704
2022-10-23T09:17:25.276Z,729
2022-10-23T09:18:31.994Z,721
2022-10-23T09:20:45.457Z,719
2022-10-23T09:21:51.460Z,718
2022-10-23T09:24:04.911Z,734
2022-10-23T09:27:25.095Z,765
2022-10-23T09:29:38.567Z,766
2022-10-23T09:31:52.049Z,744
2022-10-23T09:32:58.749Z,750
2022-10-23T09:34:05.475Z,762
2022-10-23T09:35:12.214Z,770
2022-10-23T09:36:18.960Z,759
2022-10-23T09:37:25.697Z,752
2022-10-23T09:39:39.154Z,718
2022-10-23T09:40:45.875Z,723
2022-10-23T09:41:51.859Z,710
2022-10-23T09:42:58.585Z,710
2022-10-23T09:45:12.051Z,703
2022-10-23T09:46:18.828Z,683
2022-10-23T09:47:25.508Z,673
2022-10-23T09:48:32.242Z,682
2022-10-23T09:52:59.166Z,708
2022-10-23T09:54:05.906Z,710
2022-10-23T09:55:12.614Z,706
2022-10-23T09:56:19.399Z,704
2022-10-23T09:57:25.388Z,710
2022-10-23T09:58:32.068Z,711
2022-10-23T09:59:38.792Z,719
2022-10-23T10:01:52.305Z,744
2022-10-23T10:02:58.985Z,738
2022-10-23T10:04:05.721Z,741
2022-10-23T10:05:12.458Z,748
2022-10-23T10:07:25.911Z,764
2022-10-23T10:08:32.640Z,777
2022-10-23T10:09:39.370Z,774
2022-10-23T10:10:46.095Z,776
2022-10-23T10:11:52.169Z,775
2022-10-23T10:12:58.824Z,780
2022-10-23T10:14:05.553Z,766
2022-10-23T10:15:12.305Z,754
2022-10-23T10:16:19.013Z,727
2022-10-23T10:19:39.201Z,680
2022-10-23T10:21:52.665Z,682
2022-10-23T10:25:12.862Z,744
2022-10-23T10:26:18.897Z,779
2022-10-23T10:27:25.576Z,809
2022-10-23T10:28:32.307Z,806
2022-10-23T10:29:39.043Z,799
2022-10-23T10:30:45.771Z,801
2022-10-23T10:31:52.501Z,809
2022-10-23T10:32:59.245Z,819
2022-10-23T10:34:06.008Z,838
2022-10-23T10:35:12.684Z,850
2022-10-23T10:36:19.517Z,865
2022-10-23T10:37:26.150Z,866
2022-10-23T10:38:32.874Z,852
2022-10-23T10:41:53.075Z,849
2022-10-23T10:44:06.552Z,860
2022-10-23T10:45:13.280Z,849
2022-10-23T10:46:19.249Z,841
2022-10-23T10:47:25.979Z,835
2022-10-23T10:49:39.440Z,812
2022-10-23T10:51:52.933Z,777
2022-10-23T10:52:59.627Z,777
2022-10-23T10:54:06.375Z,782
2022-10-23T10:55:13.106Z,762
2022-10-23T10:57:26.549Z,741
2022-10-23T11:00:46.752Z,736
2022-10-23T11:01:52.742Z,736
2022-10-23T11:02:59.464Z,733
2022-10-23T11:04:06.196Z,716
2022-10-23T11:05:12.924Z,683
2022-10-23T11:06:19.668Z,646
2022-10-23T11:08:33.121Z,589
2022-10-23T11:09:39.872Z,583
2022-10-23T11:10:46.567Z,570
2022-10-23T11:15:13.498Z,630
2022-10-23T11:16:20.230Z,652
2022-10-23T11:18:32.956Z,642
2022-10-23T11:19:39.704Z,623
2022-10-23T11:20:46.418Z,577
2022-10-23T11:21:53.165Z,545
2022-10-23T11:22:59.866Z,534
2022-10-23T11:24:06.650Z,546
2022-10-23T11:25:13.323Z,603
2022-10-23T11:26:20.059Z,653
2022-10-23T11:27:26.781Z,670
2022-10-23T11:28:33.515Z,654
2022-10-23T11:29:40.253Z,615
2022-10-23T11:30:46.977Z,564
2022-10-23T11:34:07.165Z,534
2022-10-23T11:36:20.626Z,579
2022-10-23T11:37:27.350Z,577
2022-10-23T11:38:33.397Z,560
2022-10-23T11:39:43.236Z,534
2022-10-23T11:40:49.947Z,521
2022-10-23T11:41:56.663Z,534
2022-10-23T11:43:03.375Z,559
2022-10-23T11:45:16.915Z,577
2022-10-23T11:46:23.561Z,538
2022-10-23T11:47:30.318Z,514
2022-10-23T11:48:37.039Z,503
2022-10-23T11:50:50.485Z,490
2022-10-23T11:51:57.206Z,488
2022-10-23T11:54:10.701Z,458
2022-10-23T11:55:17.429Z,456
2022-10-23T11:56:23.396Z,460
2022-10-23T11:57:30.126Z,464
2022-10-23T11:59:43.599Z,452
2022-10-23T12:01:57.059Z,441
2022-10-23T12:03:03.767Z,463
2022-10-23T12:04:10.504Z,478
2022-10-23T12:06:24.053Z,464
2022-10-23T12:07:30.701Z,431
2022-10-23T12:10:50.915Z,415
2022-10-23T12:11:57.615Z,474
2022-10-23T12:14:10.340Z,620
2022-10-23T12:15:17.065Z,648
2022-10-23T12:19:43.980Z,529
2022-10-23T12:21:57.466Z,430
2022-10-23T12:23:04.173Z,394
2022-10-23T12:24:10.914Z,416
2022-10-23T12:26:24.364Z,445
2022-10-23T12:27:31.119Z,514
2022-10-23T12:28:37.841Z,551
2022-10-23T12:29:43.842Z,571
2022-10-23T12:31:57.278Z,576
2022-10-23T12:34:10.740Z,545
2022-10-23T12:37:30.930Z,580
2022-10-23T12:38:37.668Z,552
2022-10-23T12:40:51.114Z,473
2022-10-23T12:43:04.582Z,431
2022-10-23T12:44:11.304Z,429
2022-10-23T12:45:17.300Z,534
2022-10-23T12:47:30.766Z,592
2022-10-23T12:48:37.490Z,612
2022-10-23T12:49:44.218Z,657
2022-10-23T12:51:57.675Z,671
2022-10-23T12:55:17.867Z,595
2022-10-23T12:56:24.598Z,530
2022-10-23T12:57:31.347Z,508
2022-10-23T12:59:44.787Z,612
2022-10-23T13:00:51.524Z,650
2022-10-23T13:03:04.972Z,647
2022-10-23T13:04:11.708Z,626
2022-10-23T13:05:18.437Z,596
2022-10-23T13:06:24.431Z,577
2022-10-23T13:07:31.168Z,545
2022-10-23T13:08:37.895Z,522
2022-10-23T13:09:44.626Z,519
2022-10-23T13:10:51.353Z,526
2022-10-23T13:11:58.102Z,556
2022-10-23T13:14:11.547Z,598
2022-10-23T13:16:24.995Z,589
2022-10-23T13:17:31.730Z,608
2022-10-23T13:19:45.187Z,646
2022-10-23T13:23:04.649Z,613
2022-10-23T13:25:18.108Z,586
2022-10-23T13:26:24.832Z,583
2022-10-23T13:29:45.056Z,560
2022-10-23T13:30:51.743Z,582
2022-10-23T13:34:11.941Z,582
2022-10-23T13:36:24.751Z,592
2022-10-23T13:37:31.395Z,595
2022-10-23T13:39:44.850Z,611
2022-10-23T13:41:58.354Z,583
2022-10-23T13:43:05.059Z,566
2022-10-23T13:45:18.509Z,509
2022-10-23T13:48:38.711Z,479
2022-10-23T13:49:44.700Z,475
2022-10-23T13:50:51.482Z,473
2022-10-23T13:51:58.150Z,457
2022-10-23T13:53:05.011Z,441
2022-10-23T13:54:11.617Z,409
2022-10-23T13:56:25.076Z,416
2022-10-23T13:58:38.534Z,420
2022-10-23T13:59:45.450Z,427
2022-10-23T14:00:52.103Z,418
2022-10-23T14:01:58.719Z,399
2022-10-23T14:03:05.448Z,386
2022-10-23T14:06:25.040Z,241
2022-10-23T14:07:31.652Z,224
2022-10-23T14:08:38.367Z,227
2022-10-23T14:09:45.091Z,206
2022-10-23T14:10:51.828Z,278
2022-10-23T14:13:05.287Z,357
2022-10-23T14:15:18.745Z,374
2022-10-23T14:17:32.227Z,336
2022-10-23T14:18:39.035Z,330
2022-10-23T14:19:44.935Z,324
2022-10-23T14:20:51.661Z,310
2022-10-23T14:21:58.420Z,317
2022-10-23T14:23:05.195Z,325
2022-10-23T14:26:25.312Z,307
2022-10-23T14:28:38.772Z,297
2022-10-23T14:29:45.496Z,298
2022-10-23T14:31:58.953Z,303
2022-10-23T14:33:05.686Z,301
2022-10-23T14:35:19.168Z,312
2022-10-23T14:36:25.171Z,288
2022-10-23T14:39:45.335Z,269
2022-10-23T14:41:58.798Z,236
2022-10-23T14:43:05.519Z,198
2022-10-23T14:45:18.973Z,132
2022-10-23T14:46:25.764Z,99
2022-10-23T14:47:32.435Z,163
2022-10-23T14:49:45.909Z,101
2022-10-23T14:50:51.894Z,124
2022-10-23T14:51:58.624Z,176
2022-10-23T14:54:12.089Z,182
2022-10-23T14:55:18.814Z,208
2022-10-23T14:57:32.322Z,224
2022-10-23T14:58:39.011Z,241
2022-10-23T14:59:45.733Z,239
2022-10-23T15:00:52.457Z,236
2022-10-23T15:01:59.190Z,224
2022-10-23T15:04:12.693Z,194
2022-10-23T15:08:39.028Z,165
2022-10-23T15:09:45.569Z,168
2022-10-23T15:10:52.294Z,181
2022-10-23T15:13:05.757Z,185
2022-10-23T15:16:25.943Z,201
2022-10-23T15:18:39.400Z,192
2022-10-23T15:20:52.862Z,170
2022-10-23T15:24:15.433Z,150
2022-10-23T15:25:22.151Z,147
2022-10-23T15:27:35.621Z,136
2022-10-23T15:28:41.655Z,127
2022-10-23T15:30:58.167Z,120
2022-10-23T15:32:04.962Z,117
2022-10-23T15:33:11.630Z,117
2022-10-23T15:34:18.357Z,117
2022-10-23T15:35:25.092Z,113
2022-10-23T15:36:31.814Z,104
2022-10-23T15:37:38.544Z,104
2022-10-23T15:38:45.276Z,98
2022-10-23T15:39:52.006Z,98
2022-10-23T15:40:58.737Z,96
2022-10-23T15:42:05.465Z,99
2022-10-23T15:43:11.463Z,86
2022-10-23T15:44:18.258Z,81
2022-10-23T15:45:24.919Z,77
2022-10-23T15:46:31.656Z,71
2022-10-23T15:47:38.394Z,71
2022-10-23T15:49:51.849Z,63
2022-10-23T15:50:58.567Z,63
2022-10-23T15:53:12.030Z,54
2022-10-23T15:55:25.487Z,35
2022-10-23T15:56:32.319Z,31
2022-10-23T15:57:38.214Z,30
2022-10-23T15:58:44.939Z,18
2022-10-23T15:59:51.676Z,10
2022-10-23T16:00:58.404Z,26
2022-10-23T16:02:05.135Z,33
2022-10-23T16:04:18.620Z,13
2022-10-23T16:05:25.331Z,15
2022-10-23T16:06:32.053Z,15
2022-10-23T16:08:45.529Z,9
2022-10-23T16:09:52.239Z,4
2022-10-23T16:10:58.971Z,4
2022-10-23T16:12:04.966Z,4
2022-10-23T16:15:25.160Z,4
2022-10-23T16:16:31.928Z,4
2022-10-23T16:17:38.621Z,0
2022-10-23T16:19:52.074Z,0
2022-10-23T16:22:05.534Z,0
2022-10-23T16:26:32.458Z,0
2022-10-23T16:27:38.467Z,0
2022-10-23T16:28:45.179Z,0
2022-10-23T16:30:58.647Z,0
2022-10-23T16:32:05.369Z,0
2022-10-23T16:34:18.832Z,0
2022-10-23T16:35:25.551Z,0
2022-10-23T16:36:32.309Z,0
2022-10-23T16:37:39.017Z,0
2022-10-23T16:38:45.751Z,0
2022-10-23T16:39:52.495Z,0
2022-10-23T16:43:12.662Z,0
2022-10-23T16:44:19.418Z,0
2022-10-23T16:45:26.126Z,0
2022-10-23T16:48:46.311Z,0
2022-10-23T16:54:19.958Z,0
2022-10-23T16:55:26.690Z,0
2022-10-23T16:56:33.426Z,0
2022-10-23T16:57:39.456Z,0
2022-10-23T16:58:46.143Z,0
2022-10-23T16:59:52.876Z,0
2022-10-23T17:00:59.603Z,0
2022-10-23T17:02:06.330Z,0
2022-10-23T17:03:13.071Z,0
2022-10-23T17:04:19.797Z,0
2022-10-23T17:05:26.522Z,0
2022-10-23T17:06:33.252Z,0
2022-10-23T17:12:06.900Z,0
2022-10-23T17:13:13.662Z,0
2022-10-23T17:15:27.082Z,0
2022-10-23T17:16:33.823Z,0
2022-10-23T17:17:40.555Z,0
2022-10-23T17:19:53.270Z,0
2022-10-23T17:21:00.008Z,0
2022-10-23T17:22:06.730Z,0
2022-10-23T17:23:13.470Z,0
2022-10-23T17:26:33.656Z,0
2022-10-23T17:27:40.379Z,0
2022-10-23T17:28:47.111Z,0
2022-10-23T17:29:53.868Z,0
2022-10-23T17:32:07.358Z,0
2022-10-23T17:33:14.030Z,0
2022-10-23T17:34:20.767Z,0
2022-10-23T17:36:33.578Z,0
2022-10-23T17:37:40.252Z,0
2022-10-23T17:41:00.451Z,0
2022-10-23T17:43:13.870Z,0
2022-10-23T17:44:20.595Z,0
2022-10-23T17:45:27.348Z,0
2022-10-23T17:47:40.787Z,0
2022-10-23T17:48:47.577Z,0
2022-10-23T17:51:00.972Z,0
2022-10-23T17:52:07.705Z,0
2022-10-23T17:53:14.458Z,0
2022-10-23T17:54:21.160Z,0
2022-10-23T17:55:27.893Z,0
2022-10-23T17:59:54.806Z,0
2022-10-23T18:01:00.810Z,0
2022-10-23T18:03:14.261Z,0
2022-10-23T18:04:21.059Z,0
2022-10-23T18:07:41.187Z,0
2022-10-23T18:13:14.831Z,0
2022-10-23T18:14:21.564Z,0
2022-10-23T18:15:28.412Z,0
2022-10-23T18:16:35.140Z,0
2022-10-23T18:22:08.784Z,0
2022-10-23T18:24:22.250Z,0
2022-10-23T18:25:28.974Z,0
2022-10-23T18:26:35.702Z,0
2022-10-23T18:27:42.445Z,0
2022-10-23T18:28:49.193Z,0
2022-10-23T18:34:22.806Z,0
2022-10-23T18:36:36.298Z,0
2022-10-23T18:37:42.331Z,0
2022-10-23T18:38:49.011Z,0
2022-10-23T18:39:55.729Z,0
2022-10-23T18:41:02.459Z,0
2022-10-23T18:42:09.207Z,0
2022-10-23T18:44:22.643Z,0
2022-10-23T18:46:36.106Z,0
2022-10-23T18:48:49.729Z,0
2022-10-23T18:49:56.341Z,0
2022-10-23T18:51:03.019Z,0
2022-10-23T18:52:09.744Z,0
2022-10-23T18:53:15.751Z,0
2022-10-23T18:54:22.491Z,0
2022-10-23T18:55:29.209Z,0
2022-10-23T18:56:35.969Z,0
2022-10-23T18:57:42.730Z,0
2022-10-23T18:59:56.149Z,0
2022-10-23T19:04:23.074Z,0
2022-10-23T19:05:29.771Z,0
2022-10-23T19:09:56.722Z,0
2022-10-23T19:11:02.705Z,0
2022-10-23T19:13:15.459Z,0
2022-10-23T19:14:21.509Z,0
2022-10-23T19:15:31.287Z,0
2022-10-23T19:16:38.009Z,0
2022-10-23T19:17:44.741Z,0
2022-10-23T19:18:51.509Z,0
2022-10-23T19:21:04.928Z,0
2022-10-23T19:22:11.661Z,0
2022-10-23T19:24:25.126Z,0
2022-10-23T19:25:31.849Z,0
2022-10-23T19:26:38.582Z,0
2022-10-23T19:28:52.042Z,0
2022-10-23T19:29:58.066Z,0
2022-10-23T19:31:04.761Z,0
2022-10-23T19:32:11.553Z,0
2022-10-23T19:34:24.975Z,0
2022-10-23T19:35:31.684Z,0
2022-10-23T19:36:38.410Z,0
2022-10-23T19:37:45.160Z,0
2022-10-23T19:39:58.632Z,0
2022-10-23T19:41:05.350Z,0
2022-10-23T19:42:12.068Z,0
2022-10-23T19:43:18.817Z,0
2022-10-23T19:44:24.818Z,0
2022-10-23T19:46:38.250Z,0
2022-10-23T19:48:51.747Z,0
2022-10-23T19:49:58.443Z,0
2022-10-23T19:51:05.167Z,0
2022-10-23T19:52:11.963Z,0
2022-10-23T19:54:25.381Z,0
2022-10-23T19:55:32.079Z,0
2022-10-23T19:58:52.284Z,0
2022-10-23T19:59:58.302Z,0
2022-10-23T20:01:04.996Z,0
2022-10-23T20:02:11.727Z,0
2022-10-23T20:03:18.458Z,0
2022-10-23T20:06:38.661Z,0
2022-10-23T20:07:45.416Z,0
2022-10-23T20:08:52.159Z,0
2022-10-23T20:09:58.879Z,0
2022-10-23T20:11:05.562Z,0
2022-10-23T20:14:25.771Z,0
2022-10-23T20:15:32.487Z,0
2022-10-23T20:16:38.489Z,0
2022-10-23T20:17:45.247Z,0
2022-10-23T20:18:52.138Z,0
2022-10-23T20:19:58.674Z,0
2022-10-23T20:21:05.447Z,0
2022-10-23T20:22:12.190Z,0
2022-10-23T20:23:18.863Z,0
2022-10-23T20:24:25.590Z,0
2022-10-23T20:25:32.414Z,0
2022-10-23T20:26:39.067Z,0
2022-10-23T20:27:45.780Z,0
2022-10-23T20:28:52.576Z,0
2022-10-23T20:29:59.239Z,0
2022-10-23T20:31:05.284Z,0
2022-10-23T20:32:11.966Z,0
2022-10-23T20:34:25.505Z,0
2022-10-23T20:35:32.169Z,0
2022-10-23T20:36:38.888Z,0
2022-10-23T20:42:11.929Z,0
2022-10-23T20:43:18.735Z,0
2022-10-23T20:45:31.384Z,0
2022-10-23T20:47:44.764Z,0
2022-10-23T20:48:51.489Z,0
2022-10-23T20:49:58.216Z,0
2022-10-23T20:51:04.970Z,0
2022-10-23T20:52:11.701Z,0
2022-10-23T20:54:25.157Z,0
2022-10-23T20:55:31.943Z,0
2022-10-23T20:56:38.592Z,0
2022-10-23T20:57:45.322Z,0
2022-10-23T20:58:52.053Z,0
2022-10-23T20:59:58.066Z,0
2022-10-23T21:02:11.525Z,0
2022-10-23T21:04:24.985Z,0
2022-10-23T21:08:51.925Z,0
2022-10-23T21:09:58.631Z,0
2022-10-23T21:11:05.352Z,0
2022-10-23T21:12:12.076Z,0
2022-10-23T21:15:32.272Z,0
2022-10-23T21:17:45.020Z,0
2022-10-23T21:18:51.728Z,0
2022-10-23T21:22:11.912Z,0
2022-10-23T21:24:25.416Z,0
2022-10-23T21:25:32.105Z,0
2022-10-23T21:27:45.561Z,0
2022-10-23T21:29:59.022Z,0
2022-10-23T21:31:05.044Z,0
2022-10-23T21:33:18.475Z,0
2022-10-23T21:34:25.320Z,0
2022-10-23T21:36:38.666Z,0
2022-10-23T21:37:45.394Z,0
2022-10-23T21:38:52.123Z,0
2022-10-23T21:39:58.870Z,0
2022-10-23T21:41:05.583Z,0
2022-10-23T21:42:12.352Z,0
2022-10-23T21:43:19.047Z,0
2022-10-23T21:44:25.778Z,0
2022-10-23T21:45:31.773Z,0
2022-10-23T21:46:38.496Z,0
2022-10-23T21:47:45.260Z,0
2022-10-23T21:49:58.709Z,0
2022-10-23T21:53:18.883Z,0
2022-10-23T21:54:25.610Z,0
2022-10-23T21:55:32.381Z,0
2022-10-23T21:56:39.069Z,0
2022-10-23T21:57:45.794Z,0
2022-10-23T21:58:52.534Z,0
2022-10-23T22:01:05.287Z,0
2022-10-23T22:02:11.988Z,0
2022-10-23T22:04:25.452Z,0
2022-10-23T22:05:32.175Z,0
2022-10-23T22:07:45.628Z,0
2022-10-23T22:09:59.110Z,0
2022-10-23T22:11:05.822Z,0
2022-10-23T22:12:12.548Z,0
2022-10-23T22:13:19.289Z,0
2022-10-23T22:14:26.011Z,0
2022-10-23T22:15:32.009Z,0
2022-10-23T22:16:38.736Z,0
2022-10-23T22:17:45.470Z,0
2022-10-23T22:18:52.280Z,0
2022-10-23T22:19:58.927Z,0
2022-10-23T22:21:05.655Z,0
2022-10-23T22:23:19.144Z,0
2022-10-23T22:24:25.857Z,0
2022-10-23T22:25:32.586Z,0
2022-10-23T22:26:39.302Z,0
2022-10-23T22:27:46.029Z,0
2022-10-23T22:29:59.497Z,0
2022-10-23T22:31:05.488Z,0
2022-10-23T22:32:12.235Z,0